createdAt,value
2017-02-03T00:00:18.046Z,0
2017-02-03T00:01:18.409Z,0
2017-02-03T00:02:18.033Z,0
2017-02-03T00:03:18.388Z,0
2017-02-03T00:04:18.348Z,0
2017-02-03T00:05:18.371Z,0
2017-02-03T00:06:17.945Z,0
2017-02-03T00:07:18.297Z,0
2017-02-03T00:08:18.308Z,0
2017-02-03T00:09:17.907Z,0
2017-02-03T00:10:18.249Z,0
2017-02-03T00:11:18.219Z,0
2017-02-03T00:12:17.832Z,0
2017-02-03T00:13:17.804Z,0
2017-02-03T00:14:18.158Z,0
2017-02-03T00:15:18.160Z,0
2017-02-03T00:16:17.767Z,0
2017-02-03T00:17:17.729Z,0
2017-02-03T00:18:17.342Z,0
2017-02-03T00:19:18.075Z,0
2017-02-03T00:20:18.055Z,0
2017-02-03T00:21:18.036Z,0
2017-02-03T00:22:18.045Z,0
2017-02-03T00:23:18.022Z,0
2017-02-03T00:24:17.593Z,0
2017-02-03T00:25:17.980Z,0
2017-02-03T00:26:17.938Z,0
2017-02-03T00:27:17.901Z,0
2017-02-03T00:28:17.902Z,0
2017-02-03T00:29:17.879Z,0
2017-02-03T00:30:17.468Z,0
2017-02-03T00:31:17.836Z,0
2017-02-03T00:32:17.823Z,0
2017-02-03T00:33:17.815Z,0
2017-02-03T00:34:17.393Z,0
2017-02-03T00:35:17.388Z,0
2017-02-03T00:36:17.748Z,0
2017-02-03T00:37:17.339Z,0
2017-02-03T00:38:17.723Z,0
2017-02-03T00:39:17.348Z,0
2017-02-03T00:40:17.667Z,0
2017-02-03T00:41:17.660Z,0
2017-02-03T00:42:17.645Z,0
2017-02-03T00:43:17.599Z,0
2017-02-03T00:44:17.598Z,0
2017-02-03T00:45:17.572Z,0
2017-02-03T00:46:17.181Z,0
2017-02-03T00:47:17.522Z,0
2017-02-03T00:48:17.526Z,0
2017-02-03T00:49:17.497Z,0
2017-02-03T00:50:17.486Z,0
2017-02-03T00:51:17.075Z,0
2017-02-03T00:52:17.449Z,0
2017-02-03T00:53:17.441Z,0
2017-02-03T00:54:17.022Z,0
2017-02-03T00:55:17.387Z,0
2017-02-03T00:56:17.023Z,0
2017-02-03T00:57:17.357Z,0
2017-02-03T00:58:16.954Z,0
2017-02-03T00:59:16.934Z,0
2017-02-03T01:00:17.313Z,0
2017-02-03T01:01:17.277Z,0
2017-02-03T01:02:16.880Z,0
2017-02-03T01:03:17.251Z,0
2017-02-03T01:04:17.242Z,0
2017-02-03T01:05:17.202Z,0
2017-02-03T01:06:17.165Z,0
2017-02-03T01:07:17.159Z,0
2017-02-03T01:08:17.125Z,0
2017-02-03T01:09:17.113Z,0
2017-02-03T01:10:17.110Z,0
2017-02-03T01:11:17.079Z,0
2017-02-03T01:12:17.066Z,0
2017-02-03T01:13:17.046Z,0
2017-02-03T01:14:17.022Z,0
2017-02-03T01:15:17.002Z,0
2017-02-03T01:16:16.984Z,0
2017-02-03T01:17:16.980Z,0
2017-02-03T01:18:16.974Z,0
2017-02-03T01:19:16.956Z,0
2017-02-03T01:20:16.918Z,0
2017-02-03T01:21:16.917Z,0
2017-02-03T01:22:16.885Z,0
2017-02-03T01:23:16.848Z,0
2017-02-03T01:24:16.831Z,0
2017-02-03T01:25:16.828Z,0
2017-02-03T01:26:16.813Z,0
2017-02-03T01:27:16.783Z,0
2017-02-03T01:28:16.778Z,0
2017-02-03T01:29:16.745Z,0
2017-02-03T01:30:16.736Z,0
2017-02-03T01:31:16.713Z,0
2017-02-03T01:32:16.683Z,0
2017-02-03T01:33:16.669Z,0
2017-02-03T01:34:16.275Z,0
2017-02-03T01:35:16.615Z,0
2017-02-03T01:36:16.586Z,0
2017-02-03T01:37:16.585Z,0
2017-02-03T01:38:16.180Z,0
2017-02-03T01:39:16.544Z,0
2017-02-03T01:40:16.544Z,0
2017-02-03T01:41:16.508Z,0
2017-02-03T01:42:16.491Z,0
2017-02-03T01:43:16.485Z,0
2017-02-03T01:44:16.439Z,0
2017-02-03T01:45:16.436Z,0
2017-02-03T01:46:16.021Z,0
2017-02-03T01:47:16.400Z,0
2017-02-03T01:48:16.391Z,0
2017-02-03T01:49:16.351Z,0
2017-02-03T01:50:16.354Z,0
2017-02-03T01:51:16.332Z,0
2017-02-03T01:52:16.348Z,0
2017-02-03T01:53:16.303Z,0
2017-02-03T01:54:16.261Z,0
2017-02-03T01:55:16.269Z,0
2017-02-03T01:56:16.223Z,0
2017-02-03T01:57:16.218Z,0
2017-02-03T01:58:16.199Z,0
2017-02-03T01:59:16.171Z,0
2017-02-03T02:00:15.754Z,0
2017-02-03T02:01:16.136Z,0
2017-02-03T02:02:16.109Z,0
2017-02-03T02:03:16.067Z,0
2017-02-03T02:04:16.082Z,0
2017-02-03T02:05:16.062Z,0
2017-02-03T02:06:15.647Z,0
2017-02-03T02:07:16.020Z,0
2017-02-03T02:08:15.992Z,0
2017-02-03T02:09:15.996Z,0
2017-02-03T02:10:15.957Z,0
2017-02-03T02:11:15.942Z,0
2017-02-03T02:12:15.926Z,0
2017-02-03T02:13:15.893Z,0
2017-02-03T02:14:15.472Z,0
2017-02-03T02:15:15.859Z,0
2017-02-03T02:16:15.458Z,0
2017-02-03T02:17:15.819Z,0
2017-02-03T02:18:15.420Z,0
2017-02-03T02:19:15.807Z,0
2017-02-03T02:20:15.391Z,0
2017-02-03T02:21:15.738Z,0
2017-02-03T02:22:15.730Z,0
2017-02-03T02:23:15.711Z,0
2017-02-03T02:24:15.692Z,0
2017-02-03T02:25:15.283Z,0
2017-02-03T02:26:15.250Z,0
2017-02-03T02:27:15.233Z,0
2017-02-03T02:28:14.837Z,0
2017-02-03T02:29:15.194Z,0
2017-02-03T02:30:15.156Z,0
2017-02-03T02:31:15.526Z,0
2017-02-03T02:32:15.540Z,0
2017-02-03T02:33:15.507Z,0
2017-02-03T02:34:15.481Z,0
2017-02-03T02:35:15.091Z,0
2017-02-03T02:36:15.452Z,0
2017-02-03T02:37:15.440Z,0
2017-02-03T02:38:15.022Z,0
2017-02-03T02:39:15.393Z,0
2017-02-03T02:40:14.964Z,0
2017-02-03T02:41:15.346Z,0
2017-02-03T02:42:15.379Z,0
2017-02-03T02:43:14.930Z,0
2017-02-03T02:44:15.299Z,0
2017-02-03T02:45:14.892Z,0
2017-02-03T02:46:15.253Z,0
2017-02-03T02:47:15.239Z,0
2017-02-03T02:48:15.204Z,0
2017-02-03T02:49:15.194Z,0
2017-02-03T02:50:15.181Z,0
2017-02-03T02:51:15.141Z,0
2017-02-03T02:52:15.161Z,0
2017-02-03T02:53:15.123Z,0
2017-02-03T02:54:15.100Z,0
2017-02-03T02:55:15.088Z,0
2017-02-03T02:56:15.081Z,0
2017-02-03T02:57:15.067Z,0
2017-02-03T02:58:14.640Z,0
2017-02-03T02:59:15.011Z,0
2017-02-03T03:00:14.995Z,0
2017-02-03T03:01:14.583Z,0
2017-02-03T03:02:14.950Z,0
2017-02-03T03:03:14.942Z,0
2017-02-03T03:04:14.905Z,0
2017-02-03T03:05:14.884Z,0
2017-02-03T03:06:14.880Z,0
2017-02-03T03:07:14.905Z,0
2017-02-03T03:08:14.819Z,0
2017-02-03T03:09:14.821Z,0
2017-02-03T03:10:14.396Z,0
2017-02-03T03:11:14.788Z,0
2017-02-03T03:12:14.368Z,0
2017-02-03T03:13:14.757Z,0
2017-02-03T03:14:14.340Z,0
2017-02-03T03:15:14.709Z,0
2017-02-03T03:16:14.687Z,0
2017-02-03T03:17:14.686Z,0
2017-02-03T03:18:14.657Z,0
2017-02-03T03:19:14.631Z,0
2017-02-03T03:20:14.612Z,0
2017-02-03T03:21:14.604Z,0
2017-02-03T03:22:14.195Z,0
2017-02-03T03:23:14.557Z,0
2017-02-03T03:24:14.152Z,0
2017-02-03T03:25:14.493Z,0
2017-02-03T03:26:14.496Z,0
2017-02-03T03:27:14.477Z,0
2017-02-03T03:28:14.454Z,0
2017-02-03T03:29:14.462Z,0
2017-02-03T03:30:14.413Z,0
2017-02-03T03:31:14.393Z,0
2017-02-03T03:32:14.388Z,0
2017-02-03T03:33:14.395Z,0
2017-02-03T03:34:13.965Z,0
2017-02-03T03:35:14.327Z,0
2017-02-03T03:36:14.297Z,0
2017-02-03T03:37:13.894Z,0
2017-02-03T03:38:14.266Z,0
2017-02-03T03:39:14.247Z,0
2017-02-03T03:40:14.235Z,0
2017-02-03T03:41:14.212Z,0
2017-02-03T03:42:13.811Z,0
2017-02-03T03:43:14.199Z,0
2017-02-03T03:44:14.150Z,0
2017-02-03T03:45:14.141Z,0
2017-02-03T03:46:14.139Z,0
2017-02-03T03:47:14.100Z,0
2017-02-03T03:48:14.084Z,0
2017-02-03T03:49:14.065Z,0
2017-02-03T03:50:13.282Z,0
2017-02-03T03:51:14.042Z,0
2017-02-03T03:52:13.625Z,0
2017-02-03T03:53:13.993Z,0
2017-02-03T03:54:13.974Z,0
2017-02-03T03:55:13.975Z,0
2017-02-03T03:56:13.574Z,0
2017-02-03T03:57:13.931Z,0
2017-02-03T03:58:13.504Z,0
2017-02-03T03:59:13.484Z,0
2017-02-03T04:00:13.846Z,0
2017-02-03T04:01:13.829Z,0
2017-02-03T04:02:13.830Z,0
2017-02-03T04:03:13.815Z,0
2017-02-03T04:04:13.787Z,0
2017-02-03T04:05:13.756Z,0
2017-02-03T04:06:13.768Z,0
2017-02-03T04:07:13.717Z,0
2017-02-03T04:08:13.711Z,0
2017-02-03T04:09:13.697Z,0
2017-02-03T04:10:12.901Z,0
2017-02-03T04:11:13.652Z,0
2017-02-03T04:12:13.238Z,0
2017-02-03T04:13:13.625Z,0
2017-02-03T04:14:13.243Z,0
2017-02-03T04:15:13.210Z,0
2017-02-03T04:16:13.547Z,0
2017-02-03T04:17:13.541Z,0
2017-02-03T04:18:13.509Z,0
2017-02-03T04:19:13.497Z,0
2017-02-03T04:20:13.482Z,0
2017-02-03T04:21:13.076Z,0
2017-02-03T04:22:13.431Z,0
2017-02-03T04:23:13.436Z,0
2017-02-03T04:24:12.638Z,0
2017-02-03T04:25:12.652Z,0
2017-02-03T04:26:13.018Z,0
2017-02-03T04:27:13.355Z,0
2017-02-03T04:28:13.345Z,0
2017-02-03T04:29:13.312Z,0
2017-02-03T04:30:12.887Z,0
2017-02-03T04:31:12.927Z,0
2017-02-03T04:32:13.083Z,0
2017-02-03T04:33:13.230Z,0
2017-02-03T04:34:13.204Z,0
2017-02-03T04:35:12.825Z,0
2017-02-03T04:36:12.803Z,0
2017-02-03T04:37:13.145Z,0
2017-02-03T04:38:12.756Z,0
2017-02-03T04:39:12.744Z,0
2017-02-03T04:40:11.937Z,0
2017-02-03T04:41:12.697Z,0
2017-02-03T04:42:12.722Z,0
2017-02-03T04:43:12.663Z,0
2017-02-03T04:44:12.648Z,0
2017-02-03T04:45:12.633Z,0
2017-02-03T04:46:12.598Z,0
2017-02-03T04:47:12.595Z,0
2017-02-03T04:48:12.228Z,0
2017-02-03T04:49:12.548Z,0
2017-02-03T04:50:12.530Z,0
2017-02-03T04:51:12.907Z,0
2017-02-03T04:52:12.873Z,0
2017-02-03T04:53:12.857Z,0
2017-02-03T04:54:12.459Z,0
2017-02-03T04:55:12.057Z,0
2017-02-03T04:56:12.413Z,0
2017-02-03T04:57:12.806Z,0
2017-02-03T04:58:12.758Z,0
2017-02-03T04:59:12.765Z,0
2017-02-03T05:00:12.547Z,0
2017-02-03T05:01:12.707Z,0
2017-02-03T05:02:12.302Z,0
2017-02-03T05:03:12.293Z,0
2017-02-03T05:04:12.651Z,0
2017-02-03T05:05:12.244Z,0
2017-02-03T05:06:12.824Z,0
2017-02-03T05:07:12.205Z,0
2017-02-03T05:08:12.574Z,0
2017-02-03T05:09:12.177Z,0
2017-02-03T05:10:12.158Z,0
2017-02-03T05:11:12.322Z,0
2017-02-03T05:12:12.507Z,0
2017-02-03T05:13:12.480Z,0
2017-02-03T05:14:12.061Z,0
2017-02-03T05:15:12.443Z,0
2017-02-03T05:16:12.034Z,0
2017-02-03T05:17:12.398Z,0
2017-02-03T05:18:11.992Z,0
2017-02-03T05:19:12.351Z,0
2017-02-03T05:20:12.003Z,0
2017-02-03T05:21:12.345Z,0
2017-02-03T05:22:11.953Z,0
2017-02-03T05:23:12.299Z,0
2017-02-03T05:24:12.277Z,0
2017-02-03T05:25:12.248Z,0
2017-02-03T05:26:11.840Z,0
2017-02-03T05:27:12.212Z,0
2017-02-03T05:28:12.203Z,0
2017-02-03T05:29:12.163Z,0
2017-02-03T05:30:11.768Z,0
2017-02-03T05:31:12.147Z,0
2017-02-03T05:32:11.717Z,0
2017-02-03T05:33:12.141Z,0
2017-02-03T05:34:12.065Z,0
2017-02-03T05:35:12.056Z,0
2017-02-03T05:36:11.637Z,0
2017-02-03T05:37:11.638Z,0
2017-02-03T05:38:11.627Z,0
2017-02-03T05:39:12.192Z,0
2017-02-03T05:40:11.801Z,0
2017-02-03T05:41:11.955Z,0
2017-02-03T05:42:11.535Z,0
2017-02-03T05:43:11.932Z,0
2017-02-03T05:44:11.512Z,0
2017-02-03T05:45:11.871Z,0
2017-02-03T05:46:11.843Z,0
2017-02-03T05:47:11.844Z,0
2017-02-03T05:48:11.807Z,0
2017-02-03T05:49:11.807Z,0
2017-02-03T05:50:11.009Z,0
2017-02-03T05:51:11.739Z,0
2017-02-03T05:52:11.354Z,0
2017-02-03T05:53:11.725Z,0
2017-02-03T05:54:11.319Z,0
2017-02-03T05:55:11.669Z,0
2017-02-03T05:56:11.661Z,0
2017-02-03T05:57:11.643Z,0
2017-02-03T05:58:11.621Z,0
2017-02-03T05:59:11.594Z,0
2017-02-03T06:00:11.204Z,0
2017-02-03T06:01:11.543Z,0
2017-02-03T06:02:11.538Z,0
2017-02-03T06:03:11.526Z,0
2017-02-03T06:04:11.518Z,0
2017-02-03T06:05:11.496Z,0
2017-02-03T06:06:11.074Z,0
2017-02-03T06:07:11.437Z,0
2017-02-03T06:08:11.435Z,0
2017-02-03T06:09:11.409Z,0
2017-02-03T06:10:11.404Z,0
2017-02-03T06:11:11.374Z,0
2017-02-03T06:12:11.340Z,0
2017-02-03T06:13:11.520Z,0
2017-02-03T06:14:10.921Z,0
2017-02-03T06:15:11.297Z,0
2017-02-03T06:16:11.271Z,0
2017-02-03T06:17:11.249Z,0
2017-02-03T06:18:11.433Z,0
2017-02-03T06:19:11.446Z,0
2017-02-03T06:20:11.198Z,0
2017-02-03T06:21:10.796Z,0
2017-02-03T06:22:11.311Z,0
2017-02-03T06:23:11.154Z,0
2017-02-03T06:24:11.127Z,0
2017-02-03T06:25:10.739Z,0
2017-02-03T06:26:10.704Z,0
2017-02-03T06:27:11.066Z,5
2017-02-03T06:28:10.667Z,5
2017-02-03T06:29:10.654Z,5
2017-02-03T06:30:11.027Z,5
2017-02-03T06:31:11.035Z,5
2017-02-03T06:32:10.203Z,10
2017-02-03T06:33:10.966Z,10
2017-02-03T06:34:10.558Z,10
2017-02-03T06:35:10.547Z,15
2017-02-03T06:36:10.128Z,15
2017-02-03T06:37:10.897Z,15
2017-02-03T06:38:10.877Z,15
2017-02-03T06:39:10.835Z,20
2017-02-03T06:40:24.963Z,20
2017-02-03T06:41:10.645Z,25
2017-02-03T06:42:10.798Z,25
2017-02-03T06:43:10.781Z,25
2017-02-03T06:44:10.757Z,30
2017-02-03T06:45:10.730Z,30
2017-02-03T06:46:10.720Z,35
2017-02-03T06:47:10.908Z,35
2017-02-03T06:48:10.674Z,40
2017-02-03T06:49:10.289Z,45
2017-02-03T06:50:10.651Z,50
2017-02-03T06:51:10.619Z,55
2017-02-03T06:52:10.790Z,60
2017-02-03T06:53:10.817Z,65
2017-02-03T06:54:09.801Z,70
2017-02-03T06:55:10.163Z,75
2017-02-03T06:56:10.516Z,80
2017-02-03T06:57:10.135Z,85
2017-02-03T06:58:09.708Z,90
2017-02-03T06:59:10.495Z,95
2017-02-03T07:00:10.067Z,95
2017-02-03T07:01:10.443Z,100
2017-02-03T07:02:10.021Z,105
2017-02-03T07:03:10.405Z,110
2017-02-03T07:04:10.400Z,115
2017-02-03T07:05:09.985Z,120
2017-02-03T07:06:09.969Z,125
2017-02-03T07:07:10.316Z,130
2017-02-03T07:08:09.950Z,135
2017-02-03T07:09:09.919Z,140
2017-02-03T07:10:10.262Z,150
2017-02-03T07:11:10.254Z,155
2017-02-03T07:12:09.894Z,160
2017-02-03T07:13:10.230Z,165
2017-02-03T07:14:10.015Z,165
2017-02-03T07:15:10.192Z,170
2017-02-03T07:16:10.196Z,180
2017-02-03T07:17:10.153Z,190
2017-02-03T07:18:10.113Z,200
2017-02-03T07:19:10.121Z,210
2017-02-03T07:20:09.705Z,220
2017-02-03T07:21:10.297Z,230
2017-02-03T07:22:10.046Z,240
2017-02-03T07:23:10.056Z,255
2017-02-03T07:24:10.043Z,265
2017-02-03T07:25:09.641Z,275
2017-02-03T07:26:09.987Z,285
2017-02-03T07:27:09.564Z,295
2017-02-03T07:28:09.959Z,295
2017-02-03T07:29:09.558Z,295
2017-02-03T07:30:09.893Z,300
2017-02-03T07:31:09.888Z,305
2017-02-03T07:32:09.859Z,305
2017-02-03T07:33:09.851Z,305
2017-02-03T07:34:09.076Z,305
2017-02-03T07:35:09.834Z,305
2017-02-03T07:36:09.808Z,300
2017-02-03T07:37:09.774Z,300
2017-02-03T07:38:09.768Z,295
2017-02-03T07:39:09.758Z,290
2017-02-03T07:40:09.745Z,290
2017-02-03T07:41:09.758Z,295
2017-02-03T07:42:09.313Z,295
2017-02-03T07:43:09.674Z,295
2017-02-03T07:44:09.653Z,300
2017-02-03T07:45:09.648Z,305
2017-02-03T07:46:09.620Z,310
2017-02-03T07:47:09.611Z,315
2017-02-03T07:48:09.584Z,320
2017-02-03T07:49:09.577Z,325
2017-02-03T07:50:09.543Z,335
2017-02-03T07:51:09.550Z,340
2017-02-03T07:52:09.548Z,345
2017-02-03T07:53:09.504Z,350
2017-02-03T07:54:09.480Z,360
2017-02-03T07:55:23.355Z,375
2017-02-03T07:56:09.451Z,385
2017-02-03T07:57:09.421Z,405
2017-02-03T07:58:09.401Z,420
2017-02-03T07:59:09.363Z,440
2017-02-03T08:00:08.992Z,460
2017-02-03T08:01:09.358Z,475
2017-02-03T08:02:08.948Z,490
2017-02-03T08:03:09.340Z,505
2017-02-03T08:04:08.924Z,520
2017-02-03T08:05:09.291Z,530
2017-02-03T08:06:09.259Z,530
2017-02-03T08:07:09.231Z,535
2017-02-03T08:08:09.231Z,535
2017-02-03T08:09:09.203Z,525
2017-02-03T08:10:09.190Z,515
2017-02-03T08:11:09.194Z,510
2017-02-03T08:12:09.152Z,510
2017-02-03T08:13:09.133Z,510
2017-02-03T08:14:08.786Z,515
2017-02-03T08:15:09.100Z,515
2017-02-03T08:16:09.083Z,520
2017-02-03T08:17:09.080Z,530
2017-02-03T08:18:09.057Z,540
2017-02-03T08:19:09.016Z,555
2017-02-03T08:20:08.632Z,580
2017-02-03T08:21:09.013Z,610
2017-02-03T08:22:08.971Z,635
2017-02-03T08:23:08.948Z,665
2017-02-03T08:24:08.930Z,705
2017-02-03T08:25:08.925Z,740
2017-02-03T08:26:08.533Z,775
2017-02-03T08:27:08.889Z,790
2017-02-03T08:28:08.881Z,815
2017-02-03T08:29:08.455Z,845
2017-02-03T08:30:08.824Z,855
2017-02-03T08:31:08.820Z,875
2017-02-03T08:32:08.835Z,880
2017-02-03T08:33:08.779Z,890
2017-02-03T08:34:08.764Z,880
2017-02-03T08:35:08.757Z,875
2017-02-03T08:36:08.737Z,865
2017-02-03T08:37:08.703Z,865
2017-02-03T08:38:08.319Z,865
2017-02-03T08:39:08.675Z,875
2017-02-03T08:40:08.264Z,890
2017-02-03T08:41:08.657Z,915
2017-02-03T08:42:08.636Z,955
2017-02-03T08:43:08.618Z,985
2017-02-03T08:44:08.590Z,1035
2017-02-03T08:45:08.575Z,1095
2017-02-03T08:46:08.549Z,1070
2017-02-03T08:47:08.548Z,1290
2017-02-03T08:48:08.552Z,1305
2017-02-03T08:49:08.486Z,1365
2017-02-03T08:50:08.100Z,1410
2017-02-03T08:51:08.454Z,1360
2017-02-03T08:52:08.458Z,1245
2017-02-03T08:53:08.431Z,1165
2017-02-03T08:54:08.419Z,1135
2017-02-03T08:55:08.402Z,1205
2017-02-03T08:56:08.381Z,1185
2017-02-03T08:57:08.371Z,1185
2017-02-03T08:58:08.363Z,1110
2017-02-03T08:59:08.336Z,1075
2017-02-03T09:00:07.925Z,1040
2017-02-03T09:01:08.353Z,1000
2017-02-03T09:02:08.288Z,970
2017-02-03T09:03:08.270Z,915
2017-02-03T09:04:07.853Z,875
2017-02-03T09:05:08.220Z,850
2017-02-03T09:06:08.215Z,840
2017-02-03T09:07:08.205Z,830
2017-02-03T09:08:07.823Z,845
2017-02-03T09:09:08.170Z,865
2017-02-03T09:10:07.776Z,890
2017-02-03T09:11:08.130Z,920
2017-02-03T09:12:07.742Z,1175
2017-02-03T09:13:08.088Z,1100
2017-02-03T09:14:07.711Z,1075
2017-02-03T09:15:08.058Z,1055
2017-02-03T09:16:07.675Z,1050
2017-02-03T09:17:08.072Z,1000
2017-02-03T09:18:07.634Z,990
2017-02-03T09:19:07.993Z,980
2017-02-03T09:20:08.010Z,995
2017-02-03T09:21:07.987Z,1010
2017-02-03T09:22:07.958Z,1035
2017-02-03T09:23:07.961Z,1045
2017-02-03T09:24:07.925Z,1035
2017-02-03T09:25:07.530Z,1035
2017-02-03T09:26:07.886Z,1035
2017-02-03T09:27:07.889Z,1035
2017-02-03T09:28:07.857Z,1030
2017-02-03T09:29:07.831Z,1000
2017-02-03T09:30:07.841Z,985
2017-02-03T09:31:07.812Z,955
2017-02-03T09:32:07.418Z,945
2017-02-03T09:33:07.781Z,925
2017-02-03T09:34:07.750Z,910
2017-02-03T09:35:07.765Z,895
2017-02-03T09:36:07.717Z,890
2017-02-03T09:37:07.715Z,870
2017-02-03T09:38:07.300Z,855
2017-02-03T09:39:07.682Z,830
2017-02-03T09:40:07.645Z,815
2017-02-03T09:41:07.638Z,800
2017-02-03T09:42:07.619Z,795
2017-02-03T09:43:07.611Z,790
2017-02-03T09:44:07.575Z,790
2017-02-03T09:45:07.553Z,805
2017-02-03T09:46:07.526Z,825
2017-02-03T09:47:07.517Z,840
2017-02-03T09:48:07.504Z,855
2017-02-03T09:49:07.498Z,880
2017-02-03T09:50:07.480Z,885
2017-02-03T09:51:07.468Z,895
2017-02-03T09:52:07.042Z,910
2017-02-03T09:53:07.424Z,940
2017-02-03T09:54:07.407Z,960
2017-02-03T09:55:07.374Z,990
2017-02-03T09:56:06.979Z,1020
2017-02-03T09:57:07.339Z,1045
2017-02-03T09:58:07.337Z,1085
2017-02-03T09:59:07.303Z,1135
2017-02-03T10:00:07.300Z,1180
2017-02-03T10:01:06.911Z,1225
2017-02-03T10:02:07.261Z,1275
2017-02-03T10:03:06.836Z,1345
2017-02-03T10:04:07.222Z,1420
2017-02-03T10:05:07.189Z,1485
2017-02-03T10:06:06.819Z,1525
2017-02-03T10:07:07.161Z,1560
2017-02-03T10:08:06.763Z,1590
2017-02-03T10:09:06.746Z,1555
2017-02-03T10:10:07.129Z,1410
2017-02-03T10:11:07.131Z,1335
2017-02-03T10:12:06.714Z,1300
2017-02-03T10:13:06.674Z,1295
2017-02-03T10:14:07.057Z,1320
2017-02-03T10:15:06.681Z,1300
2017-02-03T10:16:07.017Z,1245
2017-02-03T10:17:06.644Z,1175
2017-02-03T10:18:06.599Z,1130
2017-02-03T10:19:06.628Z,1095
2017-02-03T10:20:06.196Z,1080
2017-02-03T10:21:06.554Z,1085
2017-02-03T10:22:06.949Z,1095
2017-02-03T10:23:06.547Z,1085
2017-02-03T10:24:06.522Z,1115
2017-02-03T10:25:06.896Z,1175
2017-02-03T10:26:06.878Z,1340
2017-02-03T10:27:06.855Z,1370
2017-02-03T10:28:06.832Z,1230
2017-02-03T10:29:06.834Z,1245
2017-02-03T10:30:06.839Z,1315
2017-02-03T10:31:06.814Z,1260
2017-02-03T10:32:06.785Z,1245
2017-02-03T10:33:06.789Z,1235
2017-02-03T10:34:06.756Z,1350
2017-02-03T10:35:06.741Z,1265
2017-02-03T10:36:06.721Z,1230
2017-02-03T10:37:06.701Z,1230
2017-02-03T10:38:06.700Z,1245
2017-02-03T10:39:06.688Z,1205
2017-02-03T10:40:06.660Z,1185
2017-02-03T10:41:06.670Z,1195
2017-02-03T10:42:06.642Z,1225
2017-02-03T10:43:06.619Z,1270
2017-02-03T10:44:06.602Z,1305
2017-02-03T10:45:06.196Z,1310
2017-02-03T10:46:06.573Z,1325
2017-02-03T10:47:06.560Z,1330
2017-02-03T10:48:06.525Z,1320
2017-02-03T10:49:06.516Z,1320
2017-02-03T10:50:06.497Z,1320
2017-02-03T10:51:06.518Z,1345
2017-02-03T10:52:06.086Z,1335
2017-02-03T10:53:06.096Z,1325
2017-02-03T10:54:05.666Z,1335
2017-02-03T10:55:06.054Z,1340
2017-02-03T10:56:06.016Z,1290
2017-02-03T10:57:06.401Z,1280
2017-02-03T10:58:06.397Z,1305
2017-02-03T10:59:06.369Z,1385
2017-02-03T11:00:06.330Z,1465
2017-02-03T11:01:06.345Z,1505
2017-02-03T11:02:06.316Z,1485
2017-02-03T11:03:05.938Z,1495
2017-02-03T11:04:06.273Z,1510
2017-02-03T11:05:06.276Z,1420
2017-02-03T11:06:06.275Z,1545
2017-02-03T11:07:06.260Z,1585
2017-02-03T11:08:05.851Z,1725
2017-02-03T11:09:06.215Z,1810
2017-02-03T11:10:05.425Z,1830
2017-02-03T11:11:06.193Z,1945
2017-02-03T11:12:05.780Z,2195
2017-02-03T11:13:06.170Z,1870
2017-02-03T11:14:06.155Z,2320
2017-02-03T11:15:06.132Z,2380
2017-02-03T11:16:06.108Z,2260
2017-02-03T11:17:06.109Z,1945
2017-02-03T11:18:06.083Z,2110
2017-02-03T11:19:05.686Z,2290
2017-02-03T11:20:06.070Z,2685
2017-02-03T11:21:06.067Z,2625
2017-02-03T11:22:06.041Z,2055
2017-02-03T11:23:06.035Z,2340
2017-02-03T11:24:06.034Z,2040
2017-02-03T11:25:06.019Z,2075
2017-02-03T11:26:06.000Z,2240
2017-02-03T11:27:05.586Z,2135
2017-02-03T11:28:05.947Z,1860
2017-02-03T11:29:05.957Z,2020
2017-02-03T11:30:05.548Z,1890
2017-02-03T11:31:05.935Z,1940
2017-02-03T11:32:05.910Z,1940
2017-02-03T11:33:05.896Z,2215
2017-02-03T11:34:05.906Z,2310
2017-02-03T11:35:05.876Z,2145
2017-02-03T11:36:05.858Z,2280
2017-02-03T11:37:05.845Z,2330
2017-02-03T11:38:05.843Z,2615
2017-02-03T11:39:05.809Z,2000
2017-02-03T11:40:05.428Z,1860
2017-02-03T11:41:05.912Z,1840
2017-02-03T11:42:05.420Z,1840
2017-02-03T11:43:05.777Z,1675
2017-02-03T11:44:05.763Z,1780
2017-02-03T11:45:05.355Z,1600
2017-02-03T11:46:05.731Z,1185
2017-02-03T11:47:05.737Z,1130
2017-02-03T11:48:05.710Z,1210
2017-02-03T11:49:05.306Z,1310
2017-02-03T11:50:05.316Z,1330
2017-02-03T11:51:05.686Z,1385
2017-02-03T11:52:05.650Z,1310
2017-02-03T11:53:05.658Z,1340
2017-02-03T11:54:05.647Z,1430
2017-02-03T11:55:05.626Z,1360
2017-02-03T11:56:05.607Z,1385
2017-02-03T11:57:05.210Z,1810
2017-02-03T11:58:05.583Z,1825
2017-02-03T11:59:05.569Z,2100
2017-02-03T12:00:05.554Z,2835
2017-02-03T12:01:05.552Z,2465
2017-02-03T12:02:05.517Z,1800
2017-02-03T12:03:05.513Z,1995
2017-02-03T12:04:05.504Z,2505
2017-02-03T12:05:05.101Z,3285
2017-02-03T12:06:05.487Z,3135
2017-02-03T12:07:05.481Z,2865
2017-02-03T12:08:05.448Z,2355
2017-02-03T12:09:05.431Z,2865
2017-02-03T12:10:05.048Z,3055
2017-02-03T12:11:05.409Z,3515
2017-02-03T12:12:05.014Z,3665
2017-02-03T12:13:05.384Z,3060
2017-02-03T12:14:04.979Z,2690
2017-02-03T12:15:04.983Z,3540
2017-02-03T12:16:05.340Z,2295
2017-02-03T12:17:05.335Z,2715
2017-02-03T12:18:05.324Z,2900
2017-02-03T12:19:04.924Z,2285
2017-02-03T12:20:04.912Z,2225
2017-02-03T12:21:04.932Z,2005
2017-02-03T12:22:05.276Z,2260
2017-02-03T12:23:04.882Z,2235
2017-02-03T12:24:05.231Z,2265
2017-02-03T12:25:04.849Z,1820
2017-02-03T12:26:05.220Z,1625
2017-02-03T12:27:05.203Z,1310
2017-02-03T12:28:04.816Z,2270
2017-02-03T12:29:05.189Z,1520
2017-02-03T12:30:04.787Z,1225
2017-02-03T12:31:05.178Z,1240
2017-02-03T12:32:05.145Z,1975
2017-02-03T12:33:04.750Z,1825
2017-02-03T12:34:05.144Z,1520
2017-02-03T12:35:04.343Z,1590
2017-02-03T12:36:05.105Z,2405
2017-02-03T12:37:04.313Z,2400
2017-02-03T12:38:04.302Z,2360
2017-02-03T12:39:05.077Z,2475
2017-02-03T12:40:05.040Z,2730
2017-02-03T12:41:04.640Z,1760
2017-02-03T12:42:04.620Z,1600
2017-02-03T12:43:05.032Z,1525
2017-02-03T12:44:04.584Z,1580
2017-02-03T12:45:04.966Z,1920
2017-02-03T12:46:04.960Z,2410
2017-02-03T12:47:04.571Z,1765
2017-02-03T12:48:04.936Z,1255
2017-02-03T12:49:04.915Z,1280
2017-02-03T12:50:04.921Z,1370
2017-02-03T12:51:04.887Z,1690
2017-02-03T12:52:04.884Z,2145
2017-02-03T12:53:04.860Z,1685
2017-02-03T12:54:04.482Z,1370
2017-02-03T12:55:04.848Z,1325
2017-02-03T12:56:04.857Z,1390
2017-02-03T12:57:04.829Z,1485
2017-02-03T12:58:04.046Z,1580
2017-02-03T12:59:04.406Z,1750
2017-02-03T13:00:04.778Z,1715
2017-02-03T13:01:04.766Z,1400
2017-02-03T13:02:04.764Z,1255
2017-02-03T13:03:04.362Z,1215
2017-02-03T13:04:04.349Z,1165
2017-02-03T13:05:04.709Z,1135
2017-02-03T13:06:04.317Z,1155
2017-02-03T13:07:04.311Z,1150
2017-02-03T13:08:04.285Z,1195
2017-02-03T13:09:04.635Z,1125
2017-02-03T13:10:04.262Z,1160
2017-02-03T13:11:04.612Z,1070
2017-02-03T13:12:04.623Z,1055
2017-02-03T13:13:04.212Z,950
2017-02-03T13:14:04.195Z,1125
2017-02-03T13:15:03.786Z,1275
2017-02-03T13:16:04.157Z,1315
2017-02-03T13:17:04.143Z,1220
2017-02-03T13:18:04.513Z,1485
2017-02-03T13:19:03.740Z,1125
2017-02-03T13:20:04.495Z,1110
2017-02-03T13:21:04.087Z,1430
2017-02-03T13:22:03.704Z,1640
2017-02-03T13:23:04.061Z,1560
2017-02-03T13:24:03.276Z,1650
2017-02-03T13:25:03.665Z,2060
2017-02-03T13:26:04.035Z,1370
2017-02-03T13:27:03.657Z,1205
2017-02-03T13:28:03.221Z,1100
2017-02-03T13:29:04.367Z,1290
2017-02-03T13:30:03.953Z,1115
2017-02-03T13:31:03.551Z,1075
2017-02-03T13:32:03.921Z,1750
2017-02-03T13:33:03.913Z,1020
2017-02-03T13:34:03.899Z,1015
2017-02-03T13:35:03.871Z,1405
2017-02-03T13:36:03.868Z,1080
2017-02-03T13:37:04.287Z,1000
2017-02-03T13:38:03.822Z,920
2017-02-03T13:39:03.803Z,900
2017-02-03T13:40:03.785Z,830
2017-02-03T13:41:04.155Z,765
2017-02-03T13:42:03.756Z,795
2017-02-03T13:43:03.731Z,830
2017-02-03T13:44:04.116Z,830
2017-02-03T13:45:03.332Z,940
2017-02-03T13:46:04.081Z,1145
2017-02-03T13:47:04.069Z,1245
2017-02-03T13:48:04.041Z,1290
2017-02-03T13:49:04.046Z,1225
2017-02-03T13:50:04.004Z,1225
2017-02-03T13:51:03.611Z,1330
2017-02-03T13:52:03.596Z,1380
2017-02-03T13:53:03.955Z,1185
2017-02-03T13:54:03.928Z,1090
2017-02-03T13:55:03.931Z,1450
2017-02-03T13:56:03.931Z,1520
2017-02-03T13:57:03.513Z,1185
2017-02-03T13:58:03.510Z,910
2017-02-03T13:59:03.871Z,835
2017-02-03T14:00:03.487Z,795
2017-02-03T14:01:04.066Z,890
2017-02-03T14:02:03.421Z,840
2017-02-03T14:03:03.038Z,735
2017-02-03T14:04:03.401Z,635